createdAt,value
2018-01-26T00:02:21.188Z,9.13
2018-01-26T00:04:48.645Z,9.09
2018-01-26T00:07:16.108Z,9.04
2018-01-26T00:09:43.553Z,9.01
2018-01-26T00:12:11.194Z,8.93
2018-01-26T00:14:38.651Z,8.88
2018-01-26T00:17:06.092Z,8.90
2018-01-26T00:19:33.552Z,8.88
2018-01-26T00:22:00.997Z,8.93
2018-01-26T00:24:28.682Z,8.93
2018-01-26T00:26:56.121Z,9.04
2018-01-26T00:29:23.561Z,9.46
2018-01-26T00:31:51.017Z,9.15
2018-01-26T00:34:18.454Z,9.19
2018-01-26T00:36:46.067Z,9.32
2018-01-26T00:39:13.508Z,9.63
2018-01-26T00:41:40.945Z,9.80
2018-01-26T00:44:08.432Z,9.76
2018-01-26T00:46:35.869Z,9.46
2018-01-26T00:49:03.341Z,9.43
2018-01-26T00:51:30.785Z,9.48
2018-01-26T00:53:58.229Z,9.63
2018-01-26T00:56:25.688Z,9.26
2018-01-26T00:58:53.167Z,9.32
2018-01-26T01:01:21.143Z,9.22
2018-01-26T01:03:48.636Z,9.08
2018-01-26T01:06:16.292Z,9.08
2018-01-26T01:08:43.752Z,8.97
2018-01-26T01:11:11.185Z,8.98
2018-01-26T01:13:38.938Z,9.03
2018-01-26T01:16:06.377Z,9.03
2018-01-26T01:18:33.808Z,9.00
2018-01-26T01:21:01.282Z,8.95
2018-01-26T01:23:28.718Z,8.94
2018-01-26T01:25:56.436Z,8.89
2018-01-26T01:28:23.888Z,8.86
2018-01-26T01:30:51.324Z,8.90
2018-01-26T01:33:18.777Z,8.85
2018-01-26T01:35:46.212Z,8.82
2018-01-26T01:38:13.708Z,8.83
2018-01-26T01:40:41.141Z,8.80
2018-01-26T01:43:08.576Z,8.96
2018-01-26T01:45:36.081Z,8.87
2018-01-26T01:48:03.517Z,8.78
2018-01-26T01:50:30.977Z,8.76
2018-01-26T01:52:58.420Z,8.73
2018-01-26T01:55:25.852Z,8.73
2018-01-26T01:57:53.309Z,8.67
2018-01-26T02:00:20.744Z,8.68
2018-01-26T02:02:48.572Z,8.64
2018-01-26T02:05:16.005Z,8.62
2018-01-26T02:07:43.461Z,8.68
2018-01-26T02:10:10.925Z,8.69
2018-01-26T02:12:38.357Z,8.63
2018-01-26T02:15:05.850Z,8.56
2018-01-26T02:17:33.842Z,8.46
2018-01-26T02:20:01.305Z,8.42
2018-01-26T02:22:28.805Z,8.24
2018-01-26T02:24:56.264Z,8.26
2018-01-26T02:27:23.852Z,8.21
2018-01-26T02:29:51.292Z,8.31
2018-01-26T02:32:18.733Z,8.39
2018-01-26T02:34:46.190Z,8.37
2018-01-26T02:37:13.636Z,8.23
2018-01-26T02:39:41.340Z,8.29
2018-01-26T02:42:08.990Z,8.26
2018-01-26T02:44:36.433Z,8.28
2018-01-26T02:47:03.923Z,8.21
2018-01-26T02:49:31.362Z,8.15
2018-01-26T02:51:58.849Z,8.14
2018-01-26T02:54:26.289Z,8.22
2018-01-26T02:56:53.733Z,8.26
2018-01-26T02:59:21.188Z,8.23
2018-01-26T03:01:48.632Z,8.15
2018-01-26T03:04:16.421Z,8.10
2018-01-26T03:06:43.861Z,8.17
2018-01-26T03:09:11.298Z,8.17
2018-01-26T03:11:38.761Z,8.22
2018-01-26T03:14:06.197Z,8.18
2018-01-26T03:16:33.896Z,8.08
2018-01-26T03:19:01.338Z,8.15
2018-01-26T03:21:28.784Z,8.23
2018-01-26T03:23:56.245Z,8.18
2018-01-26T03:26:23.696Z,8.17
2018-01-26T03:28:51.421Z,8.15
2018-01-26T03:31:18.865Z,8.17
2018-01-26T03:33:46.324Z,8.16
2018-01-26T03:36:13.784Z,8.10
2018-01-26T03:38:41.465Z,7.98
2018-01-26T03:41:09.284Z,7.94
2018-01-26T03:43:36.728Z,8.05
2018-01-26T03:46:04.160Z,8.01
2018-01-26T03:48:31.620Z,7.69
2018-01-26T03:50:59.073Z,7.72
2018-01-26T03:53:26.562Z,7.78
2018-01-26T03:55:53.997Z,7.77
2018-01-26T03:58:21.442Z,7.69
2018-01-26T04:00:48.909Z,7.86
2018-01-26T04:03:16.344Z,7.85
2018-01-26T04:05:44.069Z,7.87
2018-01-26T04:08:11.505Z,7.75
2018-01-26T04:10:38.949Z,7.74
2018-01-26T04:13:06.412Z,7.79
2018-01-26T04:15:33.849Z,7.82
2018-01-26T04:18:01.585Z,7.77
2018-01-26T04:20:29.021Z,7.92
2018-01-26T04:22:56.463Z,7.79
2018-01-26T04:25:23.925Z,7.72
2018-01-26T04:27:51.357Z,7.67
2018-01-26T04:30:19.042Z,7.82
2018-01-26T04:32:46.489Z,7.85
2018-01-26T04:35:13.954Z,7.91
2018-01-26T04:37:41.412Z,7.87
2018-01-26T04:40:08.851Z,7.82
2018-01-26T04:42:36.626Z,7.81
2018-01-26T04:45:04.071Z,7.73
2018-01-26T04:47:31.517Z,7.67
2018-01-26T04:49:58.977Z,7.55
2018-01-26T04:52:26.421Z,7.54
2018-01-26T04:54:54.034Z,7.49
2018-01-26T04:57:21.472Z,7.34
2018-01-26T04:59:48.908Z,7.34
2018-01-26T05:02:16.365Z,7.50
2018-01-26T05:04:43.801Z,7.53
2018-01-26T05:07:11.277Z,7.52
2018-01-26T05:09:38.724Z,7.59
2018-01-26T05:12:06.158Z,7.56
2018-01-26T05:14:33.624Z,7.61
2018-01-26T05:17:01.061Z,7.60
2018-01-26T05:19:28.541Z,7.60
2018-01-26T05:21:56.010Z,7.62
2018-01-26T05:24:23.452Z,7.64
2018-01-26T05:26:50.905Z,7.69
2018-01-26T05:29:18.356Z,7.71
2018-01-26T05:31:46.153Z,7.73
2018-01-26T05:34:13.584Z,7.79
2018-01-26T05:36:41.089Z,7.76
2018-01-26T05:39:08.604Z,7.82
2018-01-26T05:41:36.049Z,7.85
2018-01-26T05:44:03.773Z,7.89
2018-01-26T05:46:31.209Z,7.97
2018-01-26T05:48:58.648Z,8.03
2018-01-26T05:51:26.109Z,8.25
2018-01-26T05:53:53.832Z,8.02
2018-01-26T05:56:21.448Z,7.93
2018-01-26T05:58:48.894Z,7.92
2018-01-26T06:01:16.333Z,7.84
2018-01-26T06:03:43.793Z,7.83
2018-01-26T06:06:11.330Z,7.82
2018-01-26T06:08:39.036Z,7.78
2018-01-26T06:11:06.477Z,7.80
2018-01-26T06:13:33.913Z,7.82
2018-01-26T06:16:01.373Z,7.77
2018-01-26T06:18:28.809Z,7.71
2018-01-26T06:20:56.432Z,7.76
2018-01-26T06:23:23.871Z,7.64
2018-01-26T06:25:51.308Z,7.52
2018-01-26T06:28:18.808Z,7.67
2018-01-26T06:30:46.250Z,7.80
2018-01-26T06:33:13.736Z,7.61
2018-01-26T06:35:41.193Z,7.64
2018-01-26T06:38:08.655Z,7.62
2018-01-26T06:40:36.126Z,7.62
2018-01-26T06:43:03.564Z,7.60
2018-01-26T06:45:31.038Z,7.65
2018-01-26T06:47:58.501Z,7.65
2018-01-26T06:50:26.137Z,7.67
2018-01-26T06:52:53.608Z,7.62
2018-01-26T06:55:21.074Z,7.58
2018-01-26T06:57:48.520Z,7.60
2018-01-26T07:00:16.053Z,7.55
2018-01-26T07:02:43.520Z,7.52
2018-01-26T07:05:10.959Z,7.53
2018-01-26T07:07:38.423Z,7.57
2018-01-26T07:10:05.873Z,7.61
2018-01-26T07:12:33.322Z,7.42
2018-01-26T07:15:00.785Z,7.22
2018-01-26T07:17:28.233Z,7.20
2018-01-26T07:19:55.701Z,7.43
2018-01-26T07:22:23.157Z,7.38
2018-01-26T07:24:50.618Z,7.41
2018-01-26T07:27:18.060Z,7.36
2018-01-26T07:29:45.521Z,7.30
2018-01-26T07:32:12.957Z,7.24
2018-01-26T07:34:40.416Z,7.24
2018-01-26T07:37:07.873Z,7.26
2018-01-26T07:39:35.320Z,7.18
2018-01-26T07:42:02.777Z,7.20
2018-01-26T07:44:30.245Z,7.18
2018-01-26T07:46:57.677Z,7.12
2018-01-26T07:49:25.113Z,7.22
2018-01-26T07:51:52.620Z,7.16
2018-01-26T07:54:20.029Z,7.12
2018-01-26T07:56:47.501Z,7.16
2018-01-26T07:59:14.996Z,6.95
2018-01-26T08:01:43.333Z,7.13
2018-01-26T08:04:10.776Z,7.21
2018-01-26T08:06:38.258Z,7.29
2018-01-26T08:09:05.701Z,7.28
2018-01-26T08:14:06.077Z,7.37
2018-01-26T08:16:33.513Z,7.31
2018-01-26T08:19:00.972Z,7.46
2018-01-26T08:21:28.432Z,7.55
2018-01-26T08:23:55.889Z,7.60
2018-01-26T08:26:23.341Z,7.72
2018-01-26T08:28:50.781Z,7.76
2018-01-26T08:31:18.216Z,7.82
2018-01-26T08:33:45.685Z,7.97
2018-01-26T08:36:13.128Z,8.06
2018-01-26T08:38:40.573Z,8.14
2018-01-26T08:41:08.035Z,8.12
2018-01-26T08:43:35.468Z,8.39
2018-01-26T08:46:02.926Z,8.25
2018-01-26T08:48:30.441Z,8.32
2018-01-26T08:50:57.865Z,8.40
2018-01-26T08:53:25.308Z,8.31
2018-01-26T08:55:52.772Z,8.39
2018-01-26T08:58:20.213Z,8.33
2018-01-26T09:00:47.665Z,8.27
2018-01-26T09:03:15.517Z,8.38
2018-01-26T09:05:42.953Z,8.33
2018-01-26T09:08:10.388Z,8.38
2018-01-26T09:10:38.109Z,8.51
2018-01-26T09:13:05.545Z,8.50
2018-01-26T09:15:32.981Z,8.60
2018-01-26T09:18:00.765Z,8.75
2018-01-26T09:20:28.209Z,8.72
2018-01-26T09:22:55.657Z,8.80
2018-01-26T09:25:23.168Z,8.97
2018-01-26T09:27:50.604Z,8.87
2018-01-26T09:30:18.038Z,8.80
2018-01-26T09:32:45.525Z,8.86
2018-01-26T09:35:13.011Z,8.96
2018-01-26T09:37:40.472Z,8.88
2018-01-26T09:40:08.073Z,8.93
2018-01-26T09:42:35.518Z,8.89
2018-01-26T09:45:02.966Z,9.24
2018-01-26T09:47:30.655Z,9.22
2018-01-26T09:49:58.102Z,9.01
2018-01-26T09:52:25.536Z,9.19
2018-01-26T09:54:53.005Z,9.29
2018-01-26T09:57:20.642Z,9.25
2018-01-26T09:59:48.073Z,9.13
2018-01-26T10:02:16.069Z,9.25
2018-01-26T10:04:43.523Z,9.13
2018-01-26T10:07:10.999Z,8.96
2018-01-26T10:09:38.681Z,9.20
2018-01-26T10:12:06.121Z,9.17
2018-01-26T10:14:33.582Z,9.15
2018-01-26T10:17:01.096Z,9.18
2018-01-26T10:19:28.536Z,9.45
2018-01-26T10:21:55.976Z,9.33
2018-01-26T10:24:23.557Z,9.44
2018-01-26T10:26:50.992Z,9.42
2018-01-26T10:29:18.437Z,9.34
2018-01-26T10:31:46.116Z,9.39
2018-01-26T10:34:13.557Z,9.47
2018-01-26T10:36:40.992Z,9.41
2018-01-26T10:39:08.778Z,9.46
2018-01-26T10:41:36.213Z,9.43
2018-01-26T10:44:03.649Z,9.79
2018-01-26T10:46:31.465Z,9.80
2018-01-26T10:48:58.925Z,9.57
2018-01-26T10:51:26.368Z,9.71
2018-01-26T10:53:54.027Z,9.99
2018-01-26T10:56:21.473Z,9.98
2018-01-26T10:58:52.833Z,10.03
2018-01-26T11:01:20.342Z,10.18
2018-01-26T11:03:47.785Z,9.90
2018-01-26T11:06:15.277Z,10.07
2018-01-26T11:08:42.736Z,10.14
2018-01-26T11:11:10.192Z,10.16
2018-01-26T11:13:37.633Z,10.28
2018-01-26T11:16:05.095Z,10.02
2018-01-26T11:18:33.001Z,10.16
2018-01-26T11:21:00.490Z,10.23
2018-01-26T11:23:27.950Z,10.14
2018-01-26T11:25:55.572Z,9.96
2018-01-26T11:28:23.013Z,9.88
2018-01-26T11:30:50.488Z,9.94
2018-01-26T11:33:17.929Z,10.03
2018-01-26T11:35:45.381Z,10.01
2018-01-26T11:38:12.876Z,10.04
2018-01-26T11:40:40.317Z,10.41
2018-01-26T11:43:07.762Z,10.32
2018-01-26T11:45:35.427Z,10.20
2018-01-26T11:48:02.987Z,10.37
2018-01-26T11:50:30.428Z,10.34
2018-01-26T11:52:58.101Z,10.38
2018-01-26T11:55:25.540Z,10.44
2018-01-26T11:57:53.029Z,10.60
2018-01-26T12:00:20.506Z,10.68
2018-01-26T12:02:47.984Z,10.58
2018-01-26T12:05:16.156Z,10.23
2018-01-26T12:07:43.969Z,10.27
2018-01-26T12:10:11.409Z,10.25
2018-01-26T12:12:38.865Z,10.47
2018-01-26T12:15:06.501Z,10.58
2018-01-26T12:17:33.949Z,10.52
2018-01-26T12:20:01.393Z,10.21
2018-01-26T12:22:28.871Z,10.34
2018-01-26T12:24:56.319Z,10.17
2018-01-26T12:27:23.761Z,10.14
2018-01-26T12:29:51.241Z,10.43
2018-01-26T12:32:18.685Z,10.46
2018-01-26T12:34:46.157Z,10.72
2018-01-26T12:37:13.766Z,10.39
2018-01-26T12:39:41.214Z,10.34
2018-01-26T12:42:08.653Z,10.24
2018-01-26T12:44:36.432Z,10.80
2018-01-26T12:47:03.940Z,10.79
2018-01-26T12:49:31.382Z,10.64
2018-01-26T12:51:59.209Z,10.54
2018-01-26T12:54:26.666Z,10.35
2018-01-26T12:56:54.113Z,10.33
2018-01-26T12:59:21.889Z,10.41
2018-01-26T13:01:49.339Z,10.21
2018-01-26T13:04:16.777Z,10.41
2018-01-26T13:06:44.460Z,10.45
2018-01-26T13:09:11.931Z,10.24
2018-01-26T13:11:39.418Z,10.31
2018-01-26T13:14:07.048Z,10.19
2018-01-26T13:16:34.497Z,10.68
2018-01-26T13:19:01.937Z,10.40
2018-01-26T13:21:29.439Z,10.15
2018-01-26T13:23:56.881Z,10.12
2018-01-26T13:26:24.325Z,10.13
2018-01-26T13:28:51.797Z,10.13
2018-01-26T13:31:19.288Z,10.43
2018-01-26T13:33:46.717Z,10.28
2018-01-26T13:36:14.341Z,10.22
2018-01-26T13:38:41.783Z,10.37
2018-01-26T13:41:09.221Z,10.49
2018-01-26T13:43:36.713Z,10.48
2018-01-26T13:46:04.153Z,10.86
2018-01-26T13:48:31.785Z,10.65
2018-01-26T13:50:59.960Z,10.57
2018-01-26T13:53:27.405Z,10.70
2018-01-26T13:55:55.007Z,10.92
2018-01-26T13:58:22.357Z,10.53
2018-01-26T14:00:49.797Z,10.46
2018-01-26T14:03:17.278Z,10.26
2018-01-26T14:05:45.402Z,10.44
2018-01-26T14:08:12.845Z,10.61
2018-01-26T14:10:40.304Z,10.43
2018-01-26T14:13:07.748Z,10.22
2018-01-26T14:15:35.407Z,10.48
2018-01-26T14:18:02.856Z,10.42
2018-01-26T14:20:30.297Z,10.07
2018-01-26T14:22:57.762Z,10.04
2018-01-26T14:25:25.219Z,10.10
2018-01-26T14:27:52.747Z,10.08
2018-01-26T14:30:20.186Z,9.78
2018-01-26T14:32:47.621Z,9.72
2018-01-26T14:35:15.077Z,9.82
2018-01-26T14:37:42.552Z,9.90
2018-01-26T14:40:10.200Z,9.65
2018-01-26T14:42:37.647Z,9.96
2018-01-26T14:45:05.084Z,9.64
2018-01-26T14:47:32.545Z,9.69
2018-01-26T14:50:00.017Z,9.92
2018-01-26T14:52:27.773Z,9.40
2018-01-26T14:54:55.228Z,9.42
2018-01-26T14:57:22.693Z,9.38
2018-01-26T14:59:50.213Z,9.73
2018-01-26T15:02:17.664Z,9.54
2018-01-26T15:04:45.348Z,9.34
2018-01-26T15:07:12.785Z,9.58
2018-01-26T15:09:40.267Z,9.53
2018-01-26T15:12:07.725Z,9.38
2018-01-26T15:14:35.169Z,9.59
2018-01-26T15:17:02.829Z,9.96
2018-01-26T15:19:30.264Z,9.73
2018-01-26T15:21:57.701Z,9.55
2018-01-26T15:24:25.156Z,9.43
2018-01-26T15:26:52.605Z,9.47
2018-01-26T15:29:20.429Z,9.39
2018-01-26T15:31:47.864Z,9.32
2018-01-26T15:34:15.401Z,9.18
2018-01-26T15:36:42.860Z,9.18
2018-01-26T15:39:10.295Z,9.18
2018-01-26T15:41:38.515Z,9.20
2018-01-26T15:44:05.998Z,9.24
2018-01-26T15:46:33.433Z,9.23
2018-01-26T15:49:00.905Z,9.13
2018-01-26T15:51:28.341Z,9.11
2018-01-26T15:53:56.007Z,9.01
2018-01-26T15:56:23.620Z,9.05
2018-01-26T15:58:51.061Z,9.11
2018-01-26T16:01:18.530Z,9.01
2018-01-26T16:03:45.969Z,8.99
2018-01-26T16:06:13.839Z,9.06
2018-01-26T16:08:41.319Z,9.08
2018-01-26T16:11:08.764Z,9.04
2018-01-26T16:13:36.218Z,8.96
2018-01-26T16:16:03.661Z,8.93
2018-01-26T16:18:31.429Z,8.85
2018-01-26T16:21:02.816Z,8.65
2018-01-26T16:23:30.258Z,8.50
2018-01-26T16:25:57.714Z,8.61
2018-01-26T16:28:25.170Z,8.63
2018-01-26T16:30:52.969Z,8.65
2018-01-26T16:33:20.409Z,8.85
2018-01-26T16:35:47.847Z,9.28
2018-01-26T16:38:15.306Z,8.72
2018-01-26T16:40:42.749Z,8.66
2018-01-26T16:43:10.365Z,8.53
2018-01-26T16:45:37.861Z,8.46
2018-01-26T16:48:05.305Z,8.24
2018-01-26T16:50:32.775Z,8.25
2018-01-26T16:53:00.212Z,8.17
2018-01-26T16:55:27.673Z,8.02
2018-01-26T16:57:56.125Z,7.93
2018-01-26T17:00:23.561Z,7.93
2018-01-26T17:02:51.020Z,7.96
2018-01-26T17:05:18.473Z,7.89
2018-01-26T17:07:45.956Z,7.78
2018-01-26T17:10:13.597Z,7.80
2018-01-26T17:12:41.084Z,7.88
2018-01-26T17:15:08.549Z,7.86
2018-01-26T17:17:36.001Z,7.96
2018-01-26T17:20:03.640Z,7.89
2018-01-26T17:22:31.080Z,7.88
2018-01-26T17:24:58.513Z,7.85
2018-01-26T17:27:26.009Z,7.88
2018-01-26T17:29:53.444Z,7.92
2018-01-26T17:32:20.917Z,7.83
2018-01-26T17:34:48.364Z,7.78
2018-01-26T17:37:15.801Z,7.75
2018-01-26T17:39:43.276Z,7.55
2018-01-26T17:42:10.713Z,7.49
2018-01-26T17:44:38.410Z,7.68
2018-01-26T17:47:05.848Z,7.83
2018-01-26T17:49:33.300Z,7.76
2018-01-26T17:52:00.769Z,7.88
2018-01-26T17:54:28.352Z,8.02
2018-01-26T17:56:56.021Z,7.92
2018-01-26T17:59:23.518Z,7.92
2018-01-26T18:01:51.332Z,7.93
2018-01-26T18:04:18.857Z,7.87
2018-01-26T18:06:46.331Z,7.79
2018-01-26T18:09:13.989Z,7.81
2018-01-26T18:11:41.432Z,7.83
2018-01-26T18:14:08.877Z,7.78
2018-01-26T18:16:36.691Z,7.71
2018-01-26T18:19:04.474Z,7.82
2018-01-26T18:21:32.285Z,7.97
2018-01-26T18:24:00.158Z,7.83
2018-01-26T18:26:27.742Z,7.76
2018-01-26T18:28:55.483Z,7.78
2018-01-26T18:31:23.056Z,7.93
2018-01-26T18:33:50.837Z,7.79
2018-01-26T18:36:18.351Z,7.53
2018-01-26T18:38:46.103Z,7.51
2018-01-26T18:41:13.741Z,7.48
2018-01-26T18:43:41.256Z,7.50
2018-01-26T18:46:10.618Z,7.47
2018-01-26T18:48:38.101Z,7.42
2018-01-26T18:51:05.881Z,7.24
2018-01-26T18:53:33.498Z,7.25
2018-01-26T18:56:01.041Z,7.28
2018-01-26T18:58:28.930Z,7.27
2018-01-26T19:00:56.428Z,7.28
2018-01-26T19:03:23.909Z,7.17
2018-01-26T19:05:51.383Z,7.22
2018-01-26T19:08:18.820Z,7.21
2018-01-26T19:10:46.313Z,7.33
2018-01-26T19:13:13.749Z,7.18
2018-01-26T19:15:41.233Z,7.13
2018-01-26T19:18:08.716Z,7.10
2018-01-26T19:20:36.156Z,7.14
2018-01-26T19:23:03.834Z,7.20
2018-01-26T19:25:31.276Z,7.22
2018-01-26T19:27:58.747Z,7.36
2018-01-26T19:30:26.234Z,7.28
2018-01-26T19:32:53.669Z,7.27
2018-01-26T19:35:21.173Z,7.27
2018-01-26T19:37:48.625Z,7.04
2018-01-26T19:40:16.065Z,7.08
2018-01-26T19:42:43.592Z,7.05
2018-01-26T19:45:11.033Z,6.91
2018-01-26T19:47:38.513Z,6.92
2018-01-26T19:50:06.095Z,6.82
2018-01-26T19:52:33.604Z,6.82
2018-01-26T19:55:01.449Z,6.80
2018-01-26T19:57:28.905Z,6.69
2018-01-26T19:59:56.384Z,6.66
2018-01-26T20:02:23.832Z,6.59
2018-01-26T20:05:09.112Z,6.54
2018-01-26T20:07:43.267Z,6.50
2018-01-26T20:10:11.887Z,6.48
2018-01-26T20:12:44.966Z,6.44
2018-01-26T20:15:12.913Z,6.31
2018-01-26T20:17:40.497Z,6.29
2018-01-26T20:20:07.990Z,6.27
2018-01-26T20:22:35.456Z,6.23
2018-01-26T20:25:02.994Z,6.30
2018-01-26T20:27:30.654Z,6.42
2018-01-26T20:29:58.141Z,6.29
2018-01-26T20:32:25.594Z,6.27
2018-01-26T20:34:53.107Z,6.34
2018-01-26T20:37:20.554Z,6.15
2018-01-26T20:39:48.261Z,6.13
2018-01-26T20:42:15.697Z,6.09
2018-01-26T20:44:43.175Z,6.16
2018-01-26T20:47:10.635Z,6.20
2018-01-26T20:49:38.101Z,6.35
2018-01-26T20:52:05.769Z,6.27
2018-01-26T20:54:33.204Z,6.24
2018-01-26T20:57:00.646Z,6.18
2018-01-26T20:59:28.110Z,6.08
2018-01-26T21:01:55.556Z,6.02
2018-01-26T21:04:23.343Z,5.82
2018-01-26T21:06:51.615Z,5.83
2018-01-26T21:09:19.057Z,5.77
2018-01-26T21:11:46.527Z,5.71
2018-01-26T21:14:13.965Z,5.74
2018-01-26T21:16:41.645Z,5.87
2018-01-26T21:19:09.160Z,5.76
2018-01-26T21:21:36.640Z,5.71
2018-01-26T21:24:04.137Z,5.83
2018-01-26T21:26:31.598Z,5.72
2018-01-26T21:28:59.060Z,5.70
2018-01-26T21:31:26.523Z,5.70
2018-01-26T21:33:54.009Z,5.73
2018-01-26T21:36:21.465Z,5.84
2018-01-26T21:38:48.906Z,5.81
2018-01-26T21:41:16.521Z,5.77
2018-01-26T21:43:43.956Z,5.74
2018-01-26T21:46:11.399Z,5.80
2018-01-26T21:48:38.874Z,5.89
2018-01-26T21:51:06.332Z,5.85
2018-01-26T21:53:34.007Z,6.07
2018-01-26T21:56:01.475Z,6.05
2018-01-26T21:58:28.917Z,6.14
2018-01-26T22:00:56.373Z,6.09
2018-01-26T22:03:23.812Z,5.93
2018-01-26T22:05:51.388Z,5.94
2018-01-26T22:08:18.832Z,5.99
2018-01-26T22:10:46.289Z,5.98
2018-01-26T22:13:13.749Z,6.02
2018-01-26T22:15:41.196Z,5.92
2018-01-26T22:18:08.683Z,5.83
2018-01-26T22:20:36.161Z,5.84
2018-01-26T22:23:04.203Z,5.85
2018-01-26T22:25:31.669Z,5.97
2018-01-26T22:27:59.177Z,5.96
2018-01-26T22:30:26.636Z,5.87
2018-01-26T22:32:54.081Z,5.85
2018-01-26T22:35:21.736Z,5.98
2018-01-26T22:37:49.286Z,6.04
2018-01-26T22:40:16.725Z,6.05
2018-01-26T22:42:44.442Z,5.89
2018-01-26T22:45:11.929Z,5.88
2018-01-26T22:47:39.369Z,5.94
2018-01-26T22:50:06.824Z,5.90
2018-01-26T22:52:34.261Z,5.83
2018-01-26T22:55:01.829Z,5.82
2018-01-26T22:57:29.269Z,5.80
2018-01-26T22:59:56.719Z,5.84
2018-01-26T23:02:24.568Z,5.70
2018-01-26T23:04:52.048Z,5.74
2018-01-26T23:07:19.955Z,5.79
2018-01-26T23:09:47.392Z,5.84
2018-01-26T23:12:14.828Z,5.67
2018-01-26T23:14:42.327Z,5.67
2018-01-26T23:17:09.768Z,5.72
2018-01-26T23:19:37.452Z,5.73
2018-01-26T23:22:04.909Z,5.62
2018-01-26T23:24:32.358Z,5.61
2018-01-26T23:26:59.821Z,5.71
2018-01-26T23:29:27.264Z,5.48
2018-01-26T23:31:54.745Z,5.53
2018-01-26T23:34:22.182Z,5.46
2018-01-26T23:36:49.633Z,5.46
2018-01-26T23:39:17.090Z,5.30
2018-01-26T23:41:44.529Z,5.26
2018-01-26T23:44:12.007Z,5.16
2018-01-26T23:46:39.446Z,5.22
2018-01-26T23:49:06.889Z,5.30
2018-01-26T23:51:34.361Z,5.93
2018-01-26T23:54:01.811Z,5.99
2018-01-26T23:56:29.456Z,6.30
2018-01-26T23:58:56.913Z,6.38
